createdAt,value
2022-12-16T00:01:35.879Z,81.80
2022-12-16T00:04:10.007Z,81.70
2022-12-16T00:06:37.996Z,81.70
2022-12-16T00:09:07.417Z,81.80
2022-12-16T00:11:37.202Z,81.90
2022-12-16T00:14:05.574Z,81.70
2022-12-16T00:16:34.410Z,81.80
2022-12-16T00:19:02.770Z,81.90
2022-12-16T00:21:32.466Z,81.90
2022-12-16T00:24:00.531Z,81.90
2022-12-16T00:26:30.170Z,81.80
2022-12-16T00:28:59.371Z,81.90
2022-12-16T00:31:27.800Z,81.80
2022-12-16T00:33:58.150Z,81.80
2022-12-16T00:36:26.449Z,81.90
2022-12-16T00:38:55.983Z,81.90
2022-12-16T00:41:24.262Z,81.70
2022-12-16T00:43:52.426Z,81.70
2022-12-16T00:46:21.123Z,81.70
2022-12-16T00:48:51.913Z,81.70
2022-12-16T00:51:20.242Z,81.70
2022-12-16T00:53:48.552Z,81.70
2022-12-16T00:56:18.704Z,81.70
2022-12-16T00:58:47.775Z,81.80
2022-12-16T01:01:15.904Z,81.70
2022-12-16T01:03:43.872Z,81.80
2022-12-16T01:06:13.016Z,81.80
2022-12-16T01:08:51.177Z,81.80
2022-12-16T01:11:21.831Z,81.90
2022-12-16T01:13:52.054Z,81.80
2022-12-16T01:16:22.118Z,81.80
2022-12-16T01:18:51.213Z,81.70
2022-12-16T01:21:19.170Z,81.70
2022-12-16T01:23:48.526Z,81.80
2022-12-16T01:26:17.531Z,81.90
2022-12-16T01:28:49.409Z,81.90
2022-12-16T01:31:18.443Z,81.60
2022-12-16T01:33:47.918Z,81.70
2022-12-16T01:36:16.487Z,81.70
2022-12-16T01:38:45.394Z,81.80
2022-12-16T01:41:14.219Z,81.70
2022-12-16T01:43:43.645Z,81.70
2022-12-16T01:46:17.001Z,81.80
2022-12-16T01:48:48.103Z,81.70
2022-12-16T01:51:19.354Z,81.70
2022-12-16T01:53:49.999Z,81.70
2022-12-16T01:56:20.427Z,81.80
2022-12-16T01:58:48.750Z,81.90
2022-12-16T02:01:19.278Z,81.90
2022-12-16T02:04:05.648Z,81.90
2022-12-16T02:06:34.624Z,81.90
2022-12-16T02:09:06.385Z,81.90
2022-12-16T02:11:44.586Z,81.90
2022-12-16T02:14:24.032Z,81.80
2022-12-16T02:16:56.973Z,81.90
2022-12-16T02:19:41.775Z,81.80
2022-12-16T02:22:14.638Z,81.90
2022-12-16T02:24:51.482Z,82.00
2022-12-16T02:27:43.602Z,82.10
2022-12-16T02:30:35.754Z,82.10
2022-12-16T02:33:11.223Z,82.10
2022-12-16T02:35:42.401Z,82.20
2022-12-16T02:38:15.813Z,82.20
2022-12-16T02:40:45.326Z,82.20
2022-12-16T02:43:16.832Z,82.20
2022-12-16T02:45:45.311Z,82.10
2022-12-16T02:48:14.962Z,82.20
2022-12-16T02:50:45.909Z,82.20
2022-12-16T02:53:14.754Z,82.20
2022-12-16T02:55:50.406Z,82.30
2022-12-16T02:58:20.741Z,82.40
2022-12-16T03:00:52.842Z,82.30
2022-12-16T03:03:25.363Z,82.10
2022-12-16T03:05:54.460Z,82.10
2022-12-16T03:08:25.994Z,82.20
2022-12-16T03:10:56.233Z,82.30
2022-12-16T03:13:24.884Z,82.20
2022-12-16T03:15:55.192Z,82.30
2022-12-16T03:18:25.582Z,82.30
2022-12-16T03:20:55.971Z,82.30
2022-12-16T03:23:27.171Z,82.20
2022-12-16T03:25:58.665Z,82.40
2022-12-16T03:28:31.804Z,82.40
2022-12-16T03:31:06.616Z,82.20
2022-12-16T03:33:39.822Z,82.20
2022-12-16T03:36:11.126Z,82.10
2022-12-16T03:38:40.020Z,82.10
2022-12-16T03:41:09.030Z,82.10
2022-12-16T03:43:37.924Z,82.30
2022-12-16T03:46:08.019Z,82.30
2022-12-16T03:48:39.101Z,82.20
2022-12-16T03:51:07.908Z,82.30
2022-12-16T03:53:36.426Z,82.30
2022-12-16T03:56:05.187Z,82.30
2022-12-16T03:58:35.376Z,82.30
2022-12-16T04:01:03.738Z,82.30
2022-12-16T04:03:32.296Z,82.00
2022-12-16T04:06:02.657Z,81.70
2022-12-16T04:08:31.345Z,81.60
2022-12-16T04:11:17.216Z,81.10
2022-12-16T04:14:03.327Z,81.30
2022-12-16T04:16:49.343Z,81.30
2022-12-16T04:19:38.110Z,81.20
2022-12-16T04:22:29.932Z,81.10
2022-12-16T04:24:59.295Z,81.50
2022-12-16T04:27:27.859Z,82.10
2022-12-16T04:30:14.187Z,82.00
2022-12-16T04:33:00.326Z,81.60
2022-12-16T04:35:46.530Z,81.90
2022-12-16T04:38:33.979Z,81.40
2022-12-16T04:41:19.788Z,81.30
2022-12-16T04:44:06.598Z,81.40
2022-12-16T04:46:52.586Z,81.30
2022-12-16T04:49:37.940Z,81.70
2022-12-16T04:52:23.926Z,81.60
2022-12-16T04:55:11.335Z,82.00
2022-12-16T04:57:56.652Z,81.70
2022-12-16T05:00:42.716Z,81.20
2022-12-16T05:03:36.653Z,81.40
2022-12-16T05:06:22.742Z,81.30
2022-12-16T05:09:08.535Z,80.90
2022-12-16T05:11:56.339Z,81.00
2022-12-16T05:14:42.232Z,81.30
2022-12-16T05:17:28.069Z,81.30
2022-12-16T05:20:13.589Z,81.30
2022-12-16T05:22:59.213Z,80.80
2022-12-16T05:25:45.303Z,80.60
2022-12-16T05:28:33.801Z,80.50
2022-12-16T05:31:19.454Z,80.50
2022-12-16T05:34:05.351Z,81.00
2022-12-16T05:36:51.320Z,81.80
2022-12-16T05:39:36.993Z,81.60
2022-12-16T05:42:24.735Z,81.80
2022-12-16T05:45:12.077Z,81.80
2022-12-16T05:47:58.952Z,81.50
2022-12-16T05:50:44.997Z,81.30
2022-12-16T05:53:31.638Z,81.80
2022-12-16T05:56:16.744Z,81.70
2022-12-16T05:59:02.468Z,82.00
2022-12-16T06:01:50.290Z,82.00
2022-12-16T06:04:35.905Z,81.80
2022-12-16T06:07:21.400Z,81.80
2022-12-16T06:10:06.883Z,81.50
2022-12-16T06:12:55.835Z,81.80
2022-12-16T06:15:41.201Z,81.70
2022-12-16T06:18:27.799Z,81.40
2022-12-16T06:21:14.913Z,81.50
2022-12-16T06:24:00.676Z,81.40
2022-12-16T06:26:46.306Z,81.40
2022-12-16T06:29:44.749Z,81.10
2022-12-16T06:32:30.498Z,80.70
2022-12-16T06:35:17.841Z,80.60
2022-12-16T06:38:05.673Z,80.80
2022-12-16T06:40:51.183Z,80.90
2022-12-16T06:43:40.846Z,81.20
2022-12-16T06:46:26.445Z,81.20
2022-12-16T06:49:12.359Z,82.10
2022-12-16T06:51:59.169Z,82.40
2022-12-16T06:54:45.097Z,82.70
2022-12-16T06:57:31.902Z,82.40
2022-12-16T07:00:17.197Z,82.00
2022-12-16T07:03:05.036Z,81.80
2022-12-16T07:05:59.706Z,81.40
2022-12-16T07:08:48.624Z,81.40
2022-12-16T07:11:38.101Z,81.90
2022-12-16T07:14:23.735Z,81.70
2022-12-16T07:17:13.741Z,82.00
2022-12-16T07:20:03.795Z,81.60
2022-12-16T07:22:55.580Z,81.40
2022-12-16T07:25:48.601Z,81.00
2022-12-16T07:28:34.640Z,80.90
2022-12-16T07:31:20.566Z,80.90
2022-12-16T07:34:06.284Z,81.20
2022-12-16T07:36:54.510Z,81.20
2022-12-16T07:39:40.199Z,81.10
2022-12-16T07:42:27.351Z,81.80
2022-12-16T07:45:12.991Z,81.60
2022-12-16T07:48:05.069Z,81.50
2022-12-16T07:50:50.766Z,82.20
2022-12-16T07:53:37.512Z,82.10
2022-12-16T07:56:23.986Z,83.10
2022-12-16T07:59:12.047Z,84.20
2022-12-16T08:01:57.938Z,85.00
2022-12-16T08:04:43.903Z,84.50
2022-12-16T08:07:29.711Z,84.60
2022-12-16T08:10:16.659Z,84.50
2022-12-16T08:13:02.755Z,84.10
2022-12-16T08:15:50.200Z,82.50
2022-12-16T08:18:36.262Z,80.50
2022-12-16T08:21:22.355Z,79.00
2022-12-16T08:24:08.106Z,78.20
2022-12-16T08:26:53.914Z,77.60
2022-12-16T08:29:45.665Z,76.10
2022-12-16T08:32:33.004Z,75.90
2022-12-16T08:35:19.524Z,75.10
2022-12-16T08:38:08.999Z,75.40
2022-12-16T08:41:00.112Z,74.60
2022-12-16T08:43:46.053Z,73.90
2022-12-16T08:46:32.167Z,72.70
2022-12-16T08:49:19.414Z,70.80
2022-12-16T08:52:05.232Z,68.80
2022-12-16T08:54:51.186Z,69.10
2022-12-16T08:57:37.652Z,68.70
2022-12-16T09:00:25.255Z,67.10
2022-12-16T09:03:11.843Z,63.20
2022-12-16T09:05:59.545Z,57.10
2022-12-16T09:08:45.108Z,57.50
2022-12-16T09:11:31.384Z,52.50
2022-12-16T09:14:16.939Z,52.60
2022-12-16T09:17:02.931Z,51.00
2022-12-16T09:19:48.843Z,49.20
2022-12-16T09:22:36.443Z,49.40
2022-12-16T09:25:22.370Z,47.20
2022-12-16T09:28:07.934Z,46.00
2022-12-16T09:30:54.508Z,45.30
2022-12-16T09:33:42.063Z,43.70
2022-12-16T09:36:28.138Z,43.80
2022-12-16T09:39:15.913Z,44.40
2022-12-16T09:42:04.267Z,45.30
2022-12-16T09:44:55.956Z,42.80
2022-12-16T09:47:45.053Z,41.70
2022-12-16T09:50:37.952Z,41.70
2022-12-16T09:53:25.650Z,41.90
2022-12-16T09:56:13.601Z,41.90
2022-12-16T09:59:01.934Z,38.90
2022-12-16T10:01:46.196Z,39.90
2022-12-16T10:04:32.320Z,39.60
2022-12-16T10:07:19.283Z,38.10
2022-12-16T10:10:10.289Z,39.00
2022-12-16T10:13:01.246Z,39.40
2022-12-16T10:15:50.630Z,39.30
2022-12-16T10:18:42.366Z,39.40
2022-12-16T10:21:29.618Z,37.90
2022-12-16T10:24:19.753Z,38.70
2022-12-16T10:27:10.883Z,39.60
2022-12-16T10:29:59.684Z,39.80
2022-12-16T10:32:48.090Z,40.70
2022-12-16T10:35:38.094Z,39.70
2022-12-16T10:38:26.120Z,40.70
2022-12-16T10:41:11.117Z,41.50
2022-12-16T10:43:58.401Z,43.10
2022-12-16T10:46:51.379Z,43.50
2022-12-16T10:49:38.192Z,44.20
2022-12-16T10:52:24.556Z,43.40
2022-12-16T10:55:13.626Z,42.90
2022-12-16T10:58:05.933Z,44.90
2022-12-16T11:00:58.973Z,47.00
2022-12-16T11:03:47.511Z,46.70
2022-12-16T11:06:35.521Z,46.30
2022-12-16T11:09:32.573Z,46.10
2022-12-16T11:12:32.587Z,45.40
2022-12-16T11:15:29.270Z,45.00
2022-12-16T11:18:20.867Z,44.50
2022-12-16T11:21:23.164Z,44.60
2022-12-16T11:24:22.869Z,43.40
2022-12-16T11:27:12.384Z,44.90
2022-12-16T11:30:12.047Z,43.80
2022-12-16T11:32:58.371Z,44.30
2022-12-16T11:35:45.442Z,42.90
2022-12-16T11:38:35.552Z,45.70
2022-12-16T11:41:24.277Z,44.90
2022-12-16T11:44:11.756Z,45.50
2022-12-16T11:46:57.948Z,46.20
2022-12-16T11:49:45.678Z,45.80
2022-12-16T11:52:37.476Z,46.90
2022-12-16T11:56:03.320Z,44.40
2022-12-16T11:58:50.303Z,43.90
2022-12-16T12:01:43.316Z,46.10
2022-12-16T12:04:32.034Z,43.70
2022-12-16T12:07:44.870Z,46.80
2022-12-16T12:10:45.951Z,46.80
2022-12-16T12:13:46.277Z,44.90
2022-12-16T12:16:35.931Z,44.10
2022-12-16T12:19:25.982Z,45.60
2022-12-16T12:22:16.498Z,46.30
2022-12-16T12:25:05.988Z,44.20
2022-12-16T12:27:55.175Z,44.80
2022-12-16T12:30:49.236Z,44.70
2022-12-16T12:33:39.257Z,46.90
2022-12-16T12:36:34.520Z,43.60
2022-12-16T12:39:29.264Z,46.20
2022-12-16T12:42:21.787Z,45.20
2022-12-16T12:45:15.402Z,45.40
2022-12-16T12:48:03.345Z,45.40
2022-12-16T12:50:54.453Z,46.00
2022-12-16T12:53:48.344Z,44.10
2022-12-16T12:56:36.944Z,46.40
2022-12-16T12:59:26.973Z,45.30
2022-12-16T13:02:15.016Z,44.10
2022-12-16T13:05:01.126Z,43.90
2022-12-16T13:07:46.600Z,44.10
2022-12-16T13:10:44.330Z,45.40
2022-12-16T13:13:40.949Z,45.80
2022-12-16T13:16:41.443Z,47.10
2022-12-16T13:19:54.533Z,47.60
2022-12-16T13:22:50.744Z,48.80
2022-12-16T13:26:00.495Z,48.00
2022-12-16T13:28:48.454Z,47.30
2022-12-16T13:31:36.144Z,46.60
2022-12-16T13:34:26.843Z,46.10
2022-12-16T13:37:19.177Z,46.40
2022-12-16T13:40:21.650Z,47.00
2022-12-16T13:43:11.554Z,47.40
2022-12-16T13:46:08.129Z,46.70
2022-12-16T13:48:56.071Z,47.50
2022-12-16T13:52:00.348Z,46.90
2022-12-16T13:54:50.284Z,47.00
2022-12-16T13:57:39.411Z,47.20
2022-12-16T14:00:36.548Z,48.60
2022-12-16T14:03:24.224Z,48.40
2022-12-16T14:06:13.524Z,48.50
2022-12-16T14:09:02.700Z,49.50
2022-12-16T14:11:55.089Z,48.90
2022-12-16T14:14:45.021Z,49.70
2022-12-16T14:17:32.693Z,49.70
2022-12-16T14:20:19.987Z,51.20
2022-12-16T14:23:10.677Z,51.40
2022-12-16T14:25:57.492Z,51.90
2022-12-16T14:28:45.487Z,52.40
2022-12-16T14:31:40.544Z,53.30
2022-12-16T14:34:32.028Z,54.40
2022-12-16T14:37:23.800Z,54.50
2022-12-16T14:40:12.576Z,56.00
2022-12-16T14:43:01.204Z,57.60
2022-12-16T14:45:48.674Z,60.60
2022-12-16T14:48:49.668Z,63.80
2022-12-16T14:51:41.297Z,65.40
2022-12-16T14:54:40.399Z,67.50
2022-12-16T14:57:30.027Z,69.70
2022-12-16T15:00:29.316Z,71.00
2022-12-16T15:03:18.645Z,71.90
2022-12-16T15:06:09.293Z,72.70
2022-12-16T15:08:57.923Z,73.00
2022-12-16T15:11:44.605Z,73.40
2022-12-16T15:14:34.069Z,73.50
2022-12-16T15:17:32.738Z,73.90
2022-12-16T15:20:18.389Z,74.10
2022-12-16T15:23:07.367Z,74.60
2022-12-16T15:26:02.166Z,75.00
2022-12-16T15:28:56.519Z,75.30
2022-12-16T15:31:45.999Z,75.50
2022-12-16T15:34:45.869Z,76.30
2022-12-16T15:37:36.655Z,76.50
2022-12-16T15:40:27.339Z,76.80
2022-12-16T15:43:13.151Z,77.20
2022-12-16T15:46:07.072Z,77.50
2022-12-16T15:48:53.166Z,77.50
2022-12-16T15:51:43.461Z,77.70
2022-12-16T15:54:34.034Z,78.00
2022-12-16T15:57:21.771Z,78.20
2022-12-16T16:00:16.338Z,78.30
2022-12-16T16:03:06.991Z,78.40
2022-12-16T16:05:55.432Z,78.60
2022-12-16T16:08:41.035Z,78.70
2022-12-16T16:11:31.353Z,78.80
2022-12-16T16:17:23.052Z,79.20
2022-12-16T16:20:13.577Z,79.70
2022-12-16T16:23:04.560Z,79.80
2022-12-16T16:25:50.764Z,79.90
2022-12-16T16:28:36.335Z,79.80
2022-12-16T16:31:24.532Z,79.80
2022-12-16T16:34:10.116Z,79.90
2022-12-16T16:36:56.851Z,79.90
2022-12-16T16:39:42.952Z,80.00
2022-12-16T16:42:28.702Z,80.30
2022-12-16T16:45:14.426Z,80.30
2022-12-16T16:48:02.957Z,80.50
2022-12-16T16:50:49.233Z,80.60
2022-12-16T16:53:36.024Z,80.80
2022-12-16T16:56:22.477Z,80.70
2022-12-16T16:59:08.358Z,81.00
2022-12-16T17:01:54.514Z,80.90
2022-12-16T17:04:42.033Z,80.80
2022-12-16T17:07:35.807Z,80.80
2022-12-16T17:10:21.697Z,80.90
2022-12-16T17:13:09.852Z,80.90
2022-12-16T17:15:56.178Z,81.00
2022-12-16T17:18:46.682Z,81.10
2022-12-16T17:21:44.973Z,81.10
2022-12-16T17:24:35.526Z,80.90
2022-12-16T17:27:25.895Z,80.90
2022-12-16T17:30:12.679Z,80.90
2022-12-16T17:33:00.882Z,80.90
2022-12-16T17:35:46.596Z,80.70
2022-12-16T17:38:34.835Z,80.70
2022-12-16T17:41:22.872Z,80.70
2022-12-16T17:44:11.211Z,81.00
2022-12-16T17:46:58.656Z,81.00
2022-12-16T17:49:44.881Z,81.30
2022-12-16T17:52:30.939Z,81.30
2022-12-16T17:55:18.042Z,81.40
2022-12-16T17:58:03.640Z,81.40
2022-12-16T18:00:51.945Z,81.30
2022-12-16T18:03:39.660Z,81.20
2022-12-16T18:06:26.631Z,81.30
2022-12-16T18:09:13.763Z,81.30
2022-12-16T18:12:01.483Z,81.50
2022-12-16T18:14:47.746Z,81.40
2022-12-16T18:17:33.467Z,81.50
2022-12-16T18:20:19.472Z,81.50
2022-12-16T18:23:05.227Z,81.50
2022-12-16T18:25:51.941Z,81.50
2022-12-16T18:28:42.028Z,81.40
2022-12-16T18:31:28.271Z,81.40
2022-12-16T18:34:13.863Z,81.30
2022-12-16T18:37:00.021Z,81.20
2022-12-16T18:39:45.638Z,81.40
2022-12-16T18:42:30.901Z,81.50
2022-12-16T18:45:17.827Z,81.50
2022-12-16T18:48:03.095Z,81.60
2022-12-16T18:50:56.169Z,81.70
2022-12-16T18:53:42.217Z,81.80
2022-12-16T18:56:28.421Z,81.50
2022-12-16T18:59:14.435Z,81.40
2022-12-16T19:02:02.146Z,81.40
2022-12-16T19:04:49.520Z,81.70
2022-12-16T19:07:34.934Z,81.70
2022-12-16T19:10:21.128Z,81.70
2022-12-16T19:13:06.774Z,81.70
2022-12-16T19:15:52.780Z,81.60
2022-12-16T19:18:40.925Z,81.40
2022-12-16T19:21:28.094Z,81.60
2022-12-16T19:24:13.650Z,81.40
2022-12-16T19:26:58.702Z,81.80
2022-12-16T19:29:44.619Z,81.90
2022-12-16T19:32:30.653Z,81.90
2022-12-16T19:35:17.175Z,81.50
2022-12-16T19:38:03.112Z,81.50
2022-12-16T19:40:49.096Z,81.60
2022-12-16T19:43:35.004Z,81.10
2022-12-16T19:46:20.391Z,81.00
2022-12-16T19:49:06.011Z,81.20
2022-12-16T19:51:53.345Z,81.30
2022-12-16T19:54:41.761Z,81.00
2022-12-16T19:57:29.004Z,81.20
2022-12-16T20:00:14.815Z,80.60
2022-12-16T20:03:01.114Z,80.30
2022-12-16T20:05:47.381Z,81.00
2022-12-16T20:08:34.966Z,81.50
2022-12-16T20:11:23.276Z,81.60
2022-12-16T20:14:10.511Z,81.00
2022-12-16T20:16:56.686Z,81.50
2022-12-16T20:19:44.865Z,81.30
2022-12-16T20:22:30.512Z,81.10
2022-12-16T20:25:17.454Z,81.60
2022-12-16T20:28:03.491Z,82.10
2022-12-16T20:30:49.395Z,82.20
2022-12-16T20:33:35.295Z,81.90
2022-12-16T20:36:22.588Z,81.60
2022-12-16T20:39:08.009Z,81.40
2022-12-16T20:41:56.393Z,81.50
2022-12-16T20:44:42.222Z,81.30
2022-12-16T20:47:28.308Z,80.60
2022-12-16T20:50:14.342Z,81.20
2022-12-16T20:53:00.739Z,80.90
2022-12-16T20:55:46.281Z,80.60
2022-12-16T20:58:36.667Z,81.40
2022-12-16T21:01:23.165Z,81.00
2022-12-16T21:04:09.545Z,80.80
2022-12-16T21:06:56.191Z,80.80
2022-12-16T21:09:42.230Z,81.20
2022-12-16T21:12:28.456Z,81.50
2022-12-16T21:15:17.014Z,81.40
2022-12-16T21:18:02.653Z,81.10
2022-12-16T21:20:48.391Z,80.90
2022-12-16T21:23:34.127Z,80.60
2022-12-16T21:26:30.165Z,80.70
2022-12-16T21:29:17.174Z,80.90
2022-12-16T21:32:04.572Z,81.30
2022-12-16T21:34:51.892Z,81.50
2022-12-16T21:37:38.414Z,81.60
2022-12-16T21:40:24.685Z,81.40
2022-12-16T21:43:10.167Z,81.40
2022-12-16T21:45:56.108Z,81.70
2022-12-16T21:48:46.479Z,81.40
2022-12-16T21:51:32.133Z,81.40
2022-12-16T21:54:17.829Z,81.90
2022-12-16T21:57:03.361Z,81.70
2022-12-16T21:59:48.932Z,81.60
2022-12-16T22:02:37.068Z,81.80
2022-12-16T22:05:28.765Z,81.80
2022-12-16T22:08:14.472Z,81.70
2022-12-16T22:11:00.219Z,81.50
2022-12-16T22:13:50.120Z,81.50
2022-12-16T22:16:35.732Z,81.40
2022-12-16T22:19:21.145Z,81.30
2022-12-16T22:22:09.448Z,81.00
2022-12-16T22:24:56.884Z,81.30
2022-12-16T22:27:42.352Z,81.50
2022-12-16T22:30:28.693Z,81.90
2022-12-16T22:33:14.299Z,81.50
2022-12-16T22:35:59.804Z,81.90
2022-12-16T22:38:49.446Z,81.00
2022-12-16T22:41:35.599Z,80.70
2022-12-16T22:44:21.578Z,81.30
2022-12-16T22:47:07.036Z,81.10
2022-12-16T22:49:55.970Z,81.00
2022-12-16T22:52:41.732Z,80.70
2022-12-16T22:55:33.249Z,80.80
2022-12-16T22:58:24.552Z,80.60
2022-12-16T23:01:10.238Z,81.10
2022-12-16T23:03:56.902Z,81.20
2022-12-16T23:06:43.038Z,81.10
2022-12-16T23:09:32.669Z,80.90
2022-12-16T23:12:21.189Z,80.80
2022-12-16T23:15:07.493Z,80.80
2022-12-16T23:17:53.285Z,80.30
2022-12-16T23:20:44.321Z,80.60
2022-12-16T23:23:34.642Z,80.80
2022-12-16T23:26:23.077Z,80.70
2022-12-16T23:29:10.902Z,80.90
2022-12-16T23:31:57.148Z,80.50
2022-12-16T23:34:46.137Z,81.10
2022-12-16T23:37:31.744Z,80.80
2022-12-16T23:40:18.453Z,80.70
2022-12-16T23:43:07.991Z,80.50
2022-12-16T23:45:58.403Z,80.50
2022-12-16T23:48:43.984Z,81.00
2022-12-16T23:51:29.228Z,80.80
2022-12-16T23:54:15.665Z,80.60
2022-12-16T23:57:01.714Z,80.40
2022-12-16T23:59:47.621Z,80.20
